Time;durP1;ratioP1;P1;durP2;ratioP2;P2;SDS_P1;SDS_P2;PMS_P1;PMS_P2;Temp;Humidity;BMP_temperature;BMP_pressure;BME280_temperature;BME280_humidity;BME280_pressure;Samples;Min_cycle;Max_cycle;Signal;HPM_P1;HPM_P2
2022/05/19 00:02:10;;;;;;;12.70;11.15;;;14.60;99.90;;;;;;4932243;29;20060;-77
2022/05/19 00:04:36;;;;;;;13.90;12.23;;;14.60;99.90;;;;;;4931622;29;20378;-77
2022/05/19 00:07:03;;;;;;;11.85;10.35;;;14.60;99.90;;;;;;4931065;29;20142;-77
2022/05/19 00:09:29;;;;;;;14.73;11.77;;;14.60;99.90;;;;;;4916950;29;20059;-78
2022/05/19 00:11:56;;;;;;;13.23;10.90;;;14.50;99.90;;;;;;4899740;29;20524;-77
2022/05/19 00:14:22;;;;;;;13.45;11.30;;;14.50;99.90;;;;;;4939989;29;20055;-77
2022/05/19 00:16:48;;;;;;;14.35;11.02;;;14.50;99.90;;;;;;4932050;29;20067;-77
2022/05/19 00:19:14;;;;;;;12.30;9.93;;;14.50;99.90;;;;;;4901145;29;20164;-77
2022/05/19 00:21:41;;;;;;;11.95;10.05;;;14.50;99.90;;;;;;4948014;29;20122;-77
2022/05/19 00:24:08;;;;;;;13.85;12.35;;;14.50;99.90;;;;;;4924279;29;20047;-77
2022/05/19 00:26:34;;;;;;;15.18;10.88;;;14.40;99.90;;;;;;4909666;29;20051;-77
2022/05/19 00:29:00;;;;;;;14.35;11.65;;;14.40;99.90;;;;;;4932403;29;20050;-77
2022/05/19 00:31:26;;;;;;;14.98;12.20;;;14.40;99.90;;;;;;4900770;29;20055;-77
2022/05/19 00:33:52;;;;;;;15.55;12.65;;;14.30;99.90;;;;;;4901022;29;20489;-77
2022/05/19 00:36:20;;;;;;;15.85;11.32;;;14.30;99.90;;;;;;4932327;29;20047;-77
2022/05/19 00:38:46;;;;;;;12.70;11.40;;;14.30;99.90;;;;;;4947258;29;20075;-77
2022/05/19 00:41:13;;;;;;;13.00;11.30;;;14.20;99.90;;;;;;4932257;29;20121;-77
2022/05/19 00:43:42;;;;;;;14.27;11.57;;;14.20;99.90;;;;;;4926454;29;20063;-77
2022/05/19 00:46:11;;;;;;;12.60;11.18;;;14.20;99.90;;;;;;4931973;29;20082;-77
2022/05/19 00:48:48;;;;;;;16.42;12.57;;;14.20;99.90;;;;;;4932316;29;20094;-77
2022/05/19 00:51:17;;;;;;;15.15;12.15;;;14.20;99.90;;;;;;4947517;28;20043;-77
2022/05/19 00:53:47;;;;;;;12.35;11.10;;;14.20;99.90;;;;;;4931742;29;20043;-77
2022/05/19 00:56:19;;;;;;;12.70;11.40;;;14.10;99.90;;;;;;4931608;29;20051;-77
2022/05/19 00:59:03;;;;;;;15.02;12.27;;;14.20;99.90;;;;;;4932262;29;20552;-77
2022/05/19 01:01:30;;;;;;;12.73;11.27;;;14.20;99.90;;;;;;4915476;29;20058;-77
2022/05/19 01:04:01;;;;;;;13.88;12.30;;;14.20;99.90;;;;;;4931704;29;20047;-77
2022/05/19 01:06:29;;;;;;;13.07;11.52;;;14.20;99.90;;;;;;4947618;29;20408;-77
2022/05/19 01:09:10;;;;;;;13.30;11.23;;;14.20;99.90;;;;;;4931772;29;20450;-76
2022/05/19 01:11:36;;;;;;;13.27;11.88;;;14.30;99.90;;;;;;4931211;29;20051;-77
2022/05/19 01:14:03;;;;;;;14.88;12.55;;;14.20;99.90;;;;;;4929999;29;20078;-77
2022/05/19 01:16:30;;;;;;;13.45;12.15;;;14.30;99.90;;;;;;4931045;29;20044;-77
2022/05/19 01:18:57;;;;;;;13.45;11.27;;;14.20;99.90;;;;;;4915527;29;20051;-77
2022/05/19 01:21:27;;;;;;;14.65;13.25;;;14.30;99.90;;;;;;4924037;29;20571;-77
2022/05/19 01:24:11;;;;;;;13.10;11.52;;;14.30;99.90;;;;;;4922466;29;20052;-77
2022/05/19 01:26:41;;;;;;;15.02;13.20;;;14.30;99.90;;;;;;4924309;29;20052;-77
2022/05/19 01:29:08;;;;;;;12.57;11.23;;;14.30;99.90;;;;;;4930465;29;20048;-77
2022/05/19 01:31:35;;;;;;;13.00;11.57;;;14.20;99.90;;;;;;4937969;29;20088;-77
2022/05/19 01:34:02;;;;;;;13.52;11.00;;;14.20;99.90;;;;;;4946051;29;20048;-77
2022/05/19 01:36:29;;;;;;;14.05;11.43;;;14.20;99.90;;;;;;4915325;29;20098;-77
2022/05/19 01:39:03;;;;;;;14.48;11.48;;;14.30;99.90;;;;;;4939580;29;20176;-77
2022/05/19 01:41:32;;;;;;;14.30;10.02;;;14.30;99.90;;;;;;4931263;29;20052;-77
2022/05/19 01:44:30;;;;;;;13.82;11.25;;;14.30;99.90;;;;;;4930056;29;20052;-77
2022/05/19 01:47:31;;;;;;;13.63;12.05;;;14.30;99.90;;;;;;4946480;29;20056;-77
2022/05/19 01:50:10;;;;;;;14.15;11.38;;;14.40;99.90;;;;;;4929984;29;20071;-77
2022/05/19 01:52:35;;;;;;;14.95;11.75;;;14.30;99.90;;;;;;4930245;29;20048;-76
2022/05/19 01:55:15;;;;;;;12.75;11.40;;;14.30;99.90;;;;;;4930438;29;20111;-76
2022/05/19 01:57:58;;;;;;;13.30;11.90;;;14.30;99.90;;;;;;4946061;29;20114;-77
2022/05/19 02:00:26;;;;;;;14.50;11.25;;;14.40;99.90;;;;;;4930945;29;20090;-77
2022/05/19 02:03:02;;;;;;;15.73;11.85;;;14.40;99.90;;;;;;4930814;29;20044;-77
2022/05/19 02:05:44;;;;;;;15.05;12.07;;;14.40;99.90;;;;;;4931340;29;20055;-77
2022/05/19 02:08:18;;;;;;;15.52;11.98;;;14.40;99.90;;;;;;4931150;29;20055;-77
2022/05/19 02:10:50;;;;;;;14.18;11.40;;;14.40;99.90;;;;;;4930056;29;20048;-77
2022/05/19 02:13:16;;;;;;;16.42;13.20;;;14.40;99.90;;;;;;4924149;29;20051;-77
2022/05/19 02:15:47;;;;;;;13.68;12.18;;;14.50;99.90;;;;;;4907787;29;20090;-77
2022/05/19 02:18:20;;;;;;;15.10;12.25;;;14.50;99.90;;;;;;4939231;29;20054;-77
2022/05/19 02:20:47;;;;;;;14.90;12.40;;;14.50;99.90;;;;;;4928135;29;20051;-77
2022/05/19 02:23:15;;;;;;;13.50;12.18;;;14.50;99.90;;;;;;4923599;29;20260;-77
2022/05/19 02:25:47;;;;;;;13.73;11.90;;;14.50;99.90;;;;;;4930280;29;20449;-78
2022/05/19 02:28:27;;;;;;;17.85;13.55;;;14.50;99.90;;;;;;4930060;29;20058;-77
2022/05/19 02:30:54;;;;;;;13.70;12.23;;;14.50;99.90;;;;;;4922145;29;20048;-77
2022/05/19 02:33:21;;;;;;;15.93;14.25;;;14.50;99.90;;;;;;4946099;28;20059;-77
2022/05/19 02:35:47;;;;;;;14.68;12.02;;;14.50;99.90;;;;;;4929175;29;20158;-77
2022/05/19 02:38:15;;;;;;;18.58;14.73;;;14.50;99.90;;;;;;4930549;29;20051;-77
2022/05/19 02:40:41;;;;;;;15.23;13.63;;;14.50;99.90;;;;;;4938672;29;20055;-77
2022/05/19 02:43:08;;;;;;;15.50;14.00;;;14.60;99.90;;;;;;4907544;29;20044;-76
2022/05/19 02:45:35;;;;;;;17.08;14.20;;;14.60;99.90;;;;;;4897960;29;20079;-77
2022/05/19 02:48:01;;;;;;;17.08;15.20;;;14.60;99.90;;;;;;4929978;29;20138;-78
2022/05/19 02:50:28;;;;;;;17.30;15.07;;;14.60;99.90;;;;;;4945722;28;20051;-78
2022/05/19 02:52:53;;;;;;;15.18;13.60;;;14.60;99.90;;;;;;4929814;29;20099;-78
2022/05/19 02:55:20;;;;;;;15.07;12.80;;;14.60;99.90;;;;;;4922161;29;20087;-78
2022/05/19 02:57:47;;;;;;;16.13;13.10;;;14.60;99.90;;;;;;4899116;29;20055;-77
2022/05/19 03:00:17;;;;;;;17.05;14.55;;;14.60;99.90;;;;;;4930322;29;20163;-77
2022/05/19 03:02:44;;;;;;;15.82;12.85;;;14.60;99.90;;;;;;4929551;29;20047;-78
2022/05/19 03:05:13;;;;;;;16.02;14.10;;;14.70;99.90;;;;;;4922379;29;20179;-77
2022/05/19 03:07:38;;;;;;;15.40;13.00;;;14.70;99.90;;;;;;4914450;29;20056;-77
2022/05/19 03:10:05;;;;;;;17.02;14.27;;;14.70;99.90;;;;;;4922157;29;20382;-77
2022/05/19 03:12:32;;;;;;;16.60;15.00;;;14.70;99.90;;;;;;4930123;29;20054;-78
2022/05/19 03:14:57;;;;;;;18.73;15.00;;;14.70;99.90;;;;;;4929141;29;20136;-78
2022/05/19 03:17:24;;;;;;;16.45;13.90;;;14.70;99.90;;;;;;4898481;29;20059;-77
2022/05/19 03:19:53;;;;;;;22.10;14.52;;;14.70;99.90;;;;;;4913975;29;20077;-78
2022/05/19 03:22:19;;;;;;;18.27;16.35;;;14.70;99.90;;;;;;4922782;29;20429;-77
2022/05/19 03:24:45;;;;;;;16.38;14.63;;;14.70;99.90;;;;;;4930082;29;20062;-78
2022/05/19 03:27:11;;;;;;;17.88;15.75;;;14.70;99.90;;;;;;4929326;29;20055;-77
2022/05/19 03:29:36;;;;;;;16.30;14.60;;;14.80;99.90;;;;;;4930062;29;20437;-77
2022/05/19 03:32:03;;;;;;;16.85;15.20;;;14.80;99.90;;;;;;4913397;29;20114;-77
2022/05/19 03:34:28;;;;;;;17.42;15.55;;;14.80;99.90;;;;;;4929606;29;20102;-77
2022/05/19 03:36:54;;;;;;;16.63;14.20;;;14.80;99.90;;;;;;4929293;29;20039;-77
2022/05/19 03:39:20;;;;;;;15.75;14.02;;;14.80;99.90;;;;;;4930252;29;20130;-77
2022/05/19 03:41:46;;;;;;;15.13;13.60;;;14.90;99.90;;;;;;4946446;28;20409;-77
2022/05/19 03:44:12;;;;;;;16.67;14.95;;;14.90;99.90;;;;;;4929567;29;20079;-77
2022/05/19 03:46:38;;;;;;;18.33;16.38;;;14.90;99.90;;;;;;4908200;29;20060;-77
2022/05/19 03:49:04;;;;;;;19.27;16.65;;;14.90;99.90;;;;;;4933294;29;20054;-77
2022/05/19 03:51:35;;;;;;;17.90;16.05;;;15.00;99.90;;;;;;4949492;29;20048;-77
2022/05/19 03:54:01;;;;;;;17.52;15.52;;;15.00;99.90;;;;;;4948895;29;20424;-78
2022/05/19 03:56:27;;;;;;;19.08;15.15;;;15.00;99.90;;;;;;4948369;29;20052;-78
2022/05/19 03:58:53;;;;;;;17.35;15.55;;;14.50;99.90;;;;;;4948744;28;20190;-78
2022/05/19 04:01:20;;;;;;;16.60;14.77;;;15.10;99.90;;;;;;4948924;29;20051;-78
2022/05/19 04:03:46;;;;;;;16.27;14.57;;;15.10;99.90;;;;;;4917236;29;20051;-77
2022/05/19 04:06:12;;;;;;;16.05;14.35;;;15.10;99.90;;;;;;4931851;29;20058;-77
2022/05/19 04:08:38;;;;;;;19.90;16.15;;;15.10;99.90;;;;;;4925376;29;20405;-78
2022/05/19 04:11:05;;;;;;;17.48;14.85;;;15.20;99.90;;;;;;4901069;29;20485;-77
2022/05/19 04:13:31;;;;;;;19.30;15.90;;;15.20;99.90;;;;;;4910262;29;20234;-77
2022/05/19 04:15:57;;;;;;;18.35;15.68;;;15.20;99.90;;;;;;4910906;29;20127;-77
2022/05/19 04:18:22;;;;;;;18.80;15.55;;;15.30;99.90;;;;;;4932525;29;20048;-77
2022/05/19 04:20:48;;;;;;;20.25;16.58;;;15.30;99.90;;;;;;4932561;29;20443;-77
2022/05/19 04:23:16;;;;;;;20.88;15.73;;;15.30;99.90;;;;;;4931454;29;20059;-78
2022/05/19 04:25:41;;;;;;;19.92;17.00;;;15.40;99.90;;;;;;4940049;29;20052;-78
2022/05/19 04:28:08;;;;;;;18.13;16.17;;;15.40;99.90;;;;;;4900720;29;20063;-77
2022/05/19 04:30:34;;;;;;;19.73;17.70;;;15.50;99.90;;;;;;4915925;29;20508;-77
2022/05/19 04:33:00;;;;;;;21.20;18.33;;;15.50;99.90;;;;;;4900909;29;20051;-77
2022/05/19 04:35:25;;;;;;;23.77;18.90;;;15.70;99.90;;;;;;4948253;29;20075;-77
2022/05/19 04:37:51;;;;;;;29.02;19.33;;;15.90;99.90;;;;;;4931891;29;20051;-76
2022/05/19 04:40:18;;;;;;;23.17;19.88;;;16.00;99.90;;;;;;4931829;29;20051;-77
2022/05/19 04:42:44;;;;;;;25.92;21.25;;;16.20;99.90;;;;;;4932163;29;20449;-77
2022/05/19 04:45:13;;;;;;;29.67;22.40;;;16.30;99.90;;;;;;4945962;29;20131;-77
2022/05/19 04:47:39;;;;;;;28.30;23.02;;;16.40;99.90;;;;;;4931990;29;20534;-77
2022/05/19 04:50:06;;;;;;;35.00;24.02;;;16.40;99.90;;;;;;4901170;29;20123;-77
2022/05/19 04:52:32;;;;;;;37.65;27.63;;;16.50;99.90;;;;;;4893987;29;20409;-78
2022/05/19 04:54:57;;;;;;;42.63;34.50;;;16.60;99.90;;;;;;4932050;29;20060;-78
2022/05/19 04:57:23;;;;;;;40.75;33.42;;;16.80;99.90;;;;;;4884386;29;20051;-77
2022/05/19 04:59:49;;;;;;;40.95;33.05;;;17.00;99.90;;;;;;4900637;29;20556;-78
2022/05/19 05:02:14;;;;;;;41.60;33.22;;;17.10;99.90;;;;;;4892959;29;20082;-78
2022/05/19 05:04:40;;;;;;;34.38;30.85;;;17.20;99.90;;;;;;4932268;29;20051;-78
2022/05/19 05:07:06;;;;;;;34.78;29.08;;;17.30;99.90;;;;;;4899892;29;20110;-78
2022/05/19 05:09:32;;;;;;;33.70;28.48;;;17.30;99.90;;;;;;4908093;29;20153;-77
2022/05/19 05:11:58;;;;;;;33.25;29.73;;;17.40;99.90;;;;;;4930861;29;20079;-78
2022/05/19 05:14:24;;;;;;;33.42;29.40;;;17.40;99.90;;;;;;4901653;29;20142;-77
2022/05/19 05:16:52;;;;;;;35.47;30.48;;;17.40;99.90;;;;;;4931550;29;20070;-77
2022/05/19 05:19:21;;;;;;;34.42;29.13;;;17.50;99.90;;;;;;4931160;29;20048;-78
2022/05/19 05:21:48;;;;;;;40.72;31.23;;;17.50;99.90;;;;;;4893761;29;20549;-78
2022/05/19 05:24:14;;;;;;;34.38;28.88;;;17.50;99.90;;;;;;4914727;29;20051;-80
2022/05/19 05:26:40;;;;;;;38.88;32.00;;;17.50;99.90;;;;;;4899427;29;20051;-81
2022/05/19 05:29:06;;;;;;;35.22;29.92;;;17.60;99.90;;;;;;4930081;29;20043;-82
2022/05/19 05:31:31;;;;;;;37.08;31.13;;;17.60;99.90;;;;;;4915570;29;20047;-81
2022/05/19 05:33:57;;;;;;;34.58;30.48;;;17.60;99.90;;;;;;4931237;29;20141;-80
2022/05/19 05:36:23;;;;;;;32.50;28.92;;;17.60;99.90;;;;;;4931330;29;20055;-80
2022/05/19 05:38:49;;;;;;;31.67;25.25;;;17.60;99.90;;;;;;4924373;29;20051;-80
2022/05/19 05:41:16;;;;;;;25.88;21.02;;;17.60;99.90;;;;;;4908682;29;20060;-82
2022/05/19 05:43:42;;;;;;;30.48;18.77;;;17.60;99.90;;;;;;4930566;29;20059;-82
2022/05/19 05:46:11;;;;;;;28.73;17.77;;;17.60;99.90;;;;;;4929329;29;20060;-82
2022/05/19 05:48:37;;;;;;;24.40;16.50;;;17.60;99.90;;;;;;4924000;29;20067;-81
2022/05/19 05:51:05;;;;;;;28.17;16.80;;;17.50;99.90;;;;;;4929930;29;20043;-82
2022/05/19 05:53:31;;;;;;;25.42;17.25;;;17.50;99.90;;;;;;4940052;29;20048;-82
2022/05/19 05:55:59;;;;;;;26.63;16.40;;;17.50;99.90;;;;;;4899270;29;20493;-81
2022/05/19 05:58:25;;;;;;;28.10;18.15;;;17.50;99.90;;;;;;4938958;29;20047;-81
2022/05/19 06:00:51;;;;;;;27.90;17.42;;;17.50;99.90;;;;;;4923106;29;20071;-79
2022/05/19 06:03:17;;;;;;;30.38;17.95;;;17.50;99.90;;;;;;4929710;29;20106;-81
2022/05/19 06:05:42;;;;;;;30.77;16.88;;;18.10;99.90;;;;;;4914430;29;20036;-81
2022/05/19 06:08:08;;;;;;;28.40;16.98;;;17.50;99.90;;;;;;4913955;29;21029;-81
2022/05/19 06:10:35;;;;;;;28.23;16.77;;;17.50;99.90;;;;;;4929160;29;20504;-80
2022/05/19 06:13:04;;;;;;;30.10;16.30;;;17.50;99.90;;;;;;4929481;29;20127;-85
2022/05/19 06:15:30;;;;;;;27.52;14.32;;;17.50;99.90;;;;;;4907845;29;20055;-81
2022/05/19 06:17:57;;;;;;;27.95;16.15;;;17.50;99.90;;;;;;4920533;29;20401;-81
2022/05/19 06:20:23;;;;;;;23.95;15.07;;;17.50;99.90;;;;;;4945407;29;20493;-81
2022/05/19 06:22:49;;;;;;;29.92;17.27;;;17.50;99.90;;;;;;4899050;29;20066;-82
2022/05/19 06:25:18;;;;;;;34.97;18.38;;;17.50;99.90;;;;;;4928642;29;20918;-81
2022/05/19 06:27:45;;;;;;;28.65;16.40;;;17.60;99.90;;;;;;4930150;29;20239;-81
2022/05/19 06:30:12;;;;;;;29.95;15.80;;;17.60;99.90;;;;;;4938478;29;20057;-82
2022/05/19 06:32:40;;;;;;;29.65;15.05;;;17.60;99.90;;;;;;4938174;29;20548;-81
2022/05/19 06:35:06;;;;;;;24.58;16.40;;;17.70;99.90;;;;;;4929978;29;20060;-81
2022/05/19 06:37:32;;;;;;;24.23;14.65;;;17.70;99.90;;;;;;4899274;29;20058;-82
2022/05/19 06:39:58;;;;;;;27.52;14.38;;;17.70;99.90;;;;;;4921387;29;20055;-82
2022/05/19 06:42:24;;;;;;;29.20;15.10;;;17.80;99.90;;;;;;4898522;29;20055;-80
2022/05/19 06:44:50;;;;;;;26.42;13.52;;;17.80;99.90;;;;;;4922169;29;20437;-81
2022/05/19 06:47:16;;;;;;;19.08;10.88;;;17.80;99.90;;;;;;4913398;29;20059;-81
2022/05/19 06:49:48;;;;;;;21.17;9.90;;;17.80;99.90;;;;;;4922787;29;20048;-81
2022/05/19 06:52:22;;;;;;;24.98;10.63;;;17.80;99.90;;;;;;4929113;29;20548;-81
2022/05/19 06:54:51;;;;;;;24.95;11.77;;;17.90;99.90;;;;;;4914275;29;20071;-81
2022/05/19 06:57:18;;;;;;;18.92;10.27;;;17.80;99.90;;;;;;4928526;29;20167;-81
2022/05/19 06:59:44;;;;;;;18.08;10.27;;;17.90;99.90;;;;;;4912798;29;20115;-81
2022/05/19 07:02:10;;;;;;;19.05;11.20;;;17.90;99.90;;;;;;4898415;29;20126;-81
2022/05/19 07:04:37;;;;;;;20.75;10.10;;;17.90;99.90;;;;;;4930434;29;20048;-81
2022/05/19 07:07:07;;;;;;;20.02;10.63;;;18.00;99.90;;;;;;4937010;29;20134;-81
2022/05/19 07:09:34;;;;;;;17.58;11.00;;;18.00;99.90;;;;;;4930584;29;20048;-81
2022/05/19 07:12:01;;;;;;;20.75;10.10;;;18.00;99.90;;;;;;4930299;29;20048;-80
2022/05/19 07:14:27;;;;;;;20.00;10.55;;;18.10;99.90;;;;;;4929664;29;20469;-81
2022/05/19 07:16:54;;;;;;;18.23;10.32;;;18.10;99.90;;;;;;4907168;29;20488;-82
2022/05/19 07:22:06;;;;;;;15.70;9.88;;;18.10;99.90;;;;;;4927079;29;20051;-81
2022/05/19 07:24:32;;;;;;;16.35;9.57;;;18.20;99.90;;;;;;4926180;29;20398;-82
2022/05/19 07:26:58;;;;;;;16.45;9.70;;;18.20;99.90;;;;;;4947139;28;20815;-83
2022/05/19 07:29:25;;;;;;;15.50;10.20;;;18.20;99.90;;;;;;4948240;29;20102;-83
2022/05/19 07:31:52;;;;;;;16.27;9.55;;;18.30;99.90;;;;;;4916974;29;20055;-83
2022/05/19 07:34:21;;;;;;;13.30;9.20;;;18.30;99.90;;;;;;4916283;29;20055;-82
2022/05/19 07:36:47;;;;;;;18.65;9.38;;;18.30;99.90;;;;;;4941447;28;20057;-81
2022/05/19 07:39:14;;;;;;;15.52;8.05;;;18.30;99.90;;;;;;4918188;29;20397;-82
2022/05/19 07:41:40;;;;;;;14.95;9.13;;;18.30;99.90;;;;;;4917131;29;20521;-81
2022/05/19 07:44:07;;;;;;;13.38;8.10;;;18.30;99.90;;;;;;4931553;29;20048;-80
2022/05/19 07:46:36;;;;;;;11.95;7.85;;;18.40;99.90;;;;;;4939649;29;20056;-80
2022/05/19 07:49:02;;;;;;;14.30;7.82;;;19.10;99.90;;;;;;4933313;29;20400;-80
2022/05/19 07:51:36;;;;;;;14.95;8.50;;;18.40;99.90;;;;;;4900199;29;20052;-80
2022/05/19 07:54:06;;;;;;;13.68;8.25;;;18.50;99.90;;;;;;4932969;29;20055;-80
2022/05/19 07:56:32;;;;;;;15.57;9.43;;;18.50;99.90;;;;;;4902266;29;20135;-80
2022/05/19 07:59:00;;;;;;;15.98;9.45;;;18.50;99.90;;;;;;4901603;29;20052;-80
2022/05/19 08:01:26;;;;;;;15.98;8.98;;;18.50;99.90;;;;;;4948033;29;20061;-80
2022/05/19 08:03:52;;;;;;;16.63;8.57;;;18.60;99.90;;;;;;4933296;29;20047;-80
2022/05/19 08:06:17;;;;;;;16.45;10.57;;;18.70;99.90;;;;;;4932116;29;20055;-80
2022/05/19 08:08:43;;;;;;;13.63;8.70;;;18.70;99.90;;;;;;4932657;29;20055;-80
2022/05/19 08:11:10;;;;;;;14.70;9.07;;;18.70;99.90;;;;;;4948482;29;20048;-80
2022/05/19 08:16:21;;;;;;;17.35;8.27;;;18.70;99.90;;;;;;4918176;29;20490;-80
2022/05/19 08:18:46;;;;;;;18.88;9.27;;;18.70;99.90;;;;;;4931572;29;20917;-80
2022/05/19 08:21:13;;;;;;;13.48;8.65;;;18.70;99.90;;;;;;4947422;29;20060;-79
2022/05/19 08:23:42;;;;;;;16.85;9.30;;;18.80;99.90;;;;;;4940571;28;20461;-80
2022/05/19 08:26:08;;;;;;;14.73;7.57;;;18.80;99.90;;;;;;4925333;29;20048;-80
2022/05/19 08:28:36;;;;;;;18.42;9.93;;;18.80;99.90;;;;;;4932278;29;20046;-80
2022/05/19 08:31:20;;;;;;;17.77;8.63;;;18.90;99.90;;;;;;4931920;29;20048;-80
2022/05/19 08:33:48;;;;;;;12.90;7.68;;;18.90;99.90;;;;;;4939028;29;20528;-80
2022/05/19 08:36:14;;;;;;;17.00;9.20;;;19.00;99.90;;;;;;4946835;29;20541;-80
2022/05/19 08:38:41;;;;;;;14.02;8.52;;;19.00;99.90;;;;;;4924815;29;20158;-80
2022/05/19 08:41:11;;;;;;;11.50;7.70;;;19.10;99.90;;;;;;4932905;29;20126;-80
2022/05/19 08:43:44;;;;;;;15.73;8.60;;;19.10;99.90;;;;;;4941010;29;20059;-80
2022/05/19 08:46:17;;;;;;;12.73;8.60;;;19.20;99.90;;;;;;4947258;28;20059;-79
2022/05/19 08:48:44;;;;;;;14.88;8.38;;;19.20;99.90;;;;;;4947728;29;20051;-80
2022/05/19 08:51:11;;;;;;;14.63;8.65;;;19.30;99.90;;;;;;4931935;29;20051;-79
2022/05/19 08:53:41;;;;;;;11.57;7.90;;;19.30;99.90;;;;;;4931973;29;20062;-80
2022/05/19 08:56:12;;;;;;;14.43;8.90;;;19.40;99.90;;;;;;4930850;29;20155;-80
2022/05/19 08:59:07;;;;;;;14.85;9.77;;;19.50;99.90;;;;;;4947129;29;20070;-80
2022/05/19 09:01:44;;;;;;;10.40;7.45;;;19.50;99.90;;;;;;4924235;29;20070;-80
2022/05/19 09:04:35;;;;;;;15.07;9.27;;;19.60;99.90;;;;;;4947982;28;20058;-80
2022/05/19 09:10:37;;;;;;;16.08;10.18;;;19.80;99.90;;;;;;4924349;29;20070;-80
2022/05/19 09:13:31;;;;;;;13.43;11.07;;;20.00;99.90;;;;;;4947634;29;20048;-80
2022/05/19 09:15:59;;;;;;;15.55;11.10;;;20.30;99.90;;;;;;4930577;29;20464;-80
2022/05/19 09:18:40;;;;;;;14.70;12.60;;;20.60;99.90;;;;;;4931514;29;20051;-80
2022/05/19 09:21:06;;;;;;;18.88;13.75;;;20.80;99.90;;;;;;4931532;29;20052;-79
2022/05/19 09:23:39;;;;;;;19.60;14.32;;;20.90;99.90;;;;;;4930958;29;20055;-80
2022/05/19 09:26:22;;;;;;;16.58;14.80;;;21.10;99.90;;;;;;4930586;29;20493;-80
2022/05/19 09:29:07;;;;;;;19.30;14.35;;;21.40;99.90;;;;;;4947458;29;20079;-80
2022/05/19 09:31:55;;;;;;;20.58;15.65;;;21.60;99.90;;;;;;4923782;29;20130;-81
2022/05/19 09:34:28;;;;;;;17.33;14.05;;;21.90;99.90;;;;;;4947162;29;20051;-80
2022/05/19 09:37:08;;;;;;;17.88;14.82;;;22.00;99.90;;;;;;4925031;29;20386;-80
2022/05/19 09:39:46;;;;;;;15.98;13.82;;;22.10;99.90;;;;;;4930373;29;20055;-80
2022/05/19 09:42:17;;;;;;;17.10;14.70;;;21.70;99.90;;;;;;4938841;29;20048;-81
2022/05/19 09:44:48;;;;;;;19.77;16.70;;;22.40;99.90;;;;;;4922727;29;20501;-81
2022/05/19 09:47:26;;;;;;;17.95;16.08;;;22.70;99.90;;;;;;4938178;29;20051;-80
2022/05/19 09:50:16;;;;;;;16.15;14.45;;;23.10;99.90;;;;;;4939383;29;20055;-80
2022/05/19 09:52:43;;;;;;;17.70;15.88;;;23.30;99.90;;;;;;4914745;29;20869;-80
2022/05/19 09:55:12;;;;;;;17.15;15.32;;;23.20;99.90;;;;;;4930561;29;20103;-80
2022/05/19 09:57:52;;;;;;;18.23;16.38;;;22.90;99.90;;;;;;4930435;29;20075;-80
2022/05/19 10:00:20;;;;;;;20.48;18.55;;;23.10;99.90;;;;;;4914365;29;20095;-80
2022/05/19 10:02:50;;;;;;;20.38;18.55;;;23.30;99.90;;;;;;4930810;29;20054;-80
2022/05/19 10:05:32;;;;;;;19.38;16.73;;;23.60;99.90;;;;;;4946119;28;20083;-80
2022/05/19 10:08:05;;;;;;;18.20;15.60;;;23.70;99.90;;;;;;4930806;29;20143;-81
2022/05/19 10:10:35;;;;;;;15.95;14.02;;;23.90;99.90;;;;;;4914712;29;20059;-80
2022/05/19 10:13:09;;;;;;;16.35;14.55;;;24.30;99.90;;;;;;4946713;28;20075;-81
2022/05/19 10:15:53;;;;;;;16.10;14.43;;;24.30;99.90;;;;;;4929622;29;20058;-81
2022/05/19 10:18:28;;;;;;;14.82;12.90;;;24.30;99.90;;;;;;4929080;29;20051;-81
2022/05/19 10:21:21;;;;;;;13.48;12.10;;;24.70;99.90;;;;;;4930864;29;20039;-80
2022/05/19 10:23:50;;;;;;;15.02;13.52;;;24.80;99.90;;;;;;4944602;28;20655;-80
2022/05/19 10:26:29;;;;;;;13.48;12.07;;;24.60;99.90;;;;;;4929361;29;20071;-80
2022/05/19 10:31:58;;;;;;;;;;;24.50;99.90;;;;;;4928946;29;20051;-79
2022/05/19 10:34:39;;;;;;;14.85;13.40;;;24.30;99.90;;;;;;4929085;29;19930;-81
2022/05/19 10:37:19;;;;;;;15.18;13.63;;;24.20;99.90;;;;;;4927195;29;20059;-80
2022/05/19 10:40:05;;;;;;;14.75;13.23;;;24.20;99.90;;;;;;4927738;29;20066;-79
2022/05/19 10:42:38;;;;;;;15.38;13.85;;;24.40;99.90;;;;;;4929666;29;20047;-79
2022/05/19 10:45:15;;;;;;;12.63;11.50;;;24.70;99.90;;;;;;4925845;29;20059;-80
2022/05/19 10:48:17;;;;;;;12.30;11.10;;;24.90;99.90;;;;;;4922343;29;20070;-80
2022/05/19 10:50:57;;;;;;;11.70;10.48;;;24.80;99.90;;;;;;4927110;29;20074;-81
2022/05/19 10:53:54;;;;;;;10.82;9.73;;;24.80;99.90;;;;;;4928659;29;20055;-81
2022/05/19 10:57:03;;;;;;;9.77;8.85;;;25.10;99.90;;;;;;4916441;29;20060;-81
2022/05/19 10:59:42;;;;;;;8.80;8.00;;;25.50;99.90;;;;;;4936104;29;20090;-81
2022/05/19 11:02:26;;;;;;;8.82;7.93;;;25.50;99.90;;;;;;4934376;29;20047;-82
2022/05/19 11:04:58;;;;;;;8.95;8.15;;;25.40;99.90;;;;;;4933300;29;20130;-80
2022/05/19 11:07:35;;;;;;;8.70;7.90;;;25.20;99.90;;;;;;4948987;28;20055;-81
2022/05/19 11:10:17;;;;;;;9.30;8.20;;;24.90;99.90;;;;;;4933167;29;20436;-81
2022/05/19 11:13:04;;;;;;;9.57;8.57;;;24.70;99.90;;;;;;4931149;29;20051;-81
2022/05/19 11:15:41;;;;;;;11.88;8.70;;;24.40;99.90;;;;;;4947969;29;20082;-81
2022/05/19 11:18:09;;;;;;;9.77;8.77;;;24.00;99.90;;;;;;4940422;28;20497;-81
2022/05/19 11:20:54;;;;;;;10.00;8.85;;;23.80;99.90;;;;;;4947423;28;20074;-81
2022/05/19 11:24:13;;;;;;;9.23;8.35;;;23.60;99.90;;;;;;4927057;29;20403;-80
2022/05/19 11:26:45;;;;;;;9.85;8.82;;;23.40;99.90;;;;;;4914124;29;20475;-81
2022/05/19 11:30:02;;;;;;;10.02;9.02;;;23.30;99.90;;;;;;4932361;29;20497;-81
2022/05/19 11:32:51;;;;;;;9.95;8.38;;;23.00;99.90;;;;;;4913118;29;20135;-81
2022/05/19 11:35:38;;;;;;;10.55;8.95;;;22.80;99.90;;;;;;4927292;29;20039;-80
2022/05/19 11:39:04;;;;;;;8.55;7.65;;;22.70;99.90;;;;;;4931532;29;20130;-80
2022/05/19 11:41:35;;;;;;;8.77;7.32;;;22.50;99.90;;;;;;4931640;29;20054;-80
2022/05/19 11:44:10;;;;;;;7.65;6.95;;;22.20;99.90;;;;;;4925099;29;20058;-81
2022/05/19 11:55:11;;;;;;;8.20;7.33;;;22.00;99.90;;;;;;4902372;29;20048;-80
2022/05/19 11:55:47;;;;;;;11.70;9.85;;;21.00;99.90;;;;;;4907154;29;19923;-79
2022/05/19 11:58:22;;;;;;;15.13;10.68;;;20.80;99.90;;;;;;4897772;29;20099;-80
2022/05/19 12:00:55;;;;;;;13.63;8.45;;;20.60;99.90;;;;;;4912353;29;20058;-80
2022/05/19 12:03:24;;;;;;;13.65;6.65;;;20.30;99.90;;;;;;4912378;29;20059;-79
2022/05/19 12:06:16;;;;;;;16.25;6.07;;;20.10;99.90;;;;;;4892139;29;20064;-80
2022/05/19 12:08:56;;;;;;;11.50;5.53;;;19.80;99.90;;;;;;4907531;29;20410;-80
2022/05/19 12:11:25;;;;;;;11.40;5.30;;;19.70;99.90;;;;;;4913219;29;20127;-80
2022/05/19 12:14:27;;;;;;;13.85;5.93;;;19.50;99.90;;;;;;4912771;29;20059;-80
2022/05/19 12:16:59;;;;;;;16.55;6.30;;;19.50;99.90;;;;;;4954044;28;20101;-80
2022/05/19 12:19:30;;;;;;;12.43;7.30;;;19.40;99.90;;;;;;4906519;29;20067;-80
2022/05/19 12:21:56;;;;;;;16.08;6.97;;;19.40;99.90;;;;;;4929030;29;20071;-80
2022/05/19 12:24:53;;;;;;;17.48;8.48;;;19.30;99.90;;;;;;4896877;29;20489;-80
2022/05/19 12:27:28;;;;;;;20.30;9.63;;;19.30;99.90;;;;;;4913819;29;20060;-80
2022/05/19 12:29:59;;;;;;;;;;;19.20;99.90;;;;;;4891144;29;20055;-80
2022/05/19 12:32:37;;;;;;;17.73;12.40;;;19.20;99.90;;;;;;4905892;29;20344;-80
2022/05/19 12:35:10;;;;;;;20.92;13.73;;;19.10;99.90;;;;;;4912808;29;20080;-80
2022/05/19 12:37:46;;;;;;;24.33;16.75;;;19.00;99.90;;;;;;4912423;29;20080;-80
2022/05/19 12:40:26;;;;;;;25.17;19.20;;;19.00;99.90;;;;;;4891861;29;20052;-80
2022/05/19 12:43:39;;;;;;;28.90;18.00;;;19.00;99.90;;;;;;4899317;29;20083;-80
2022/05/19 12:46:13;;;;;;;24.67;11.38;;;19.00;99.90;;;;;;4944815;28;20172;-81
2022/05/19 12:48:44;;;;;;;20.27;9.32;;;18.80;99.90;;;;;;4946072;29;20059;-82
2022/05/19 12:51:17;;;;;;;13.63;7.78;;;18.80;99.90;;;;;;4939086;28;20572;-81
2022/05/19 12:53:49;;;;;;;20.35;8.10;;;18.80;99.90;;;;;;4930228;29;20087;-81
2022/05/19 12:56:40;;;;;;;13.30;7.57;;;18.70;99.90;;;;;;4929325;29;20115;-80
2022/05/19 12:59:23;;;;;;;12.68;7.30;;;18.70;99.90;;;;;;4927677;29;20036;-80
2022/05/19 13:01:53;;;;;;;13.57;6.80;;;18.70;99.90;;;;;;4930285;29;20150;-80
2022/05/19 13:04:28;;;;;;;11.10;7.03;;;18.70;99.90;;;;;;4946715;29;20135;-80
2022/05/19 13:07:25;;;;;;;13.57;7.72;;;18.70;99.90;;;;;;4930789;29;20071;-80
2022/05/19 13:10:02;;;;;;;;;;;18.60;99.90;;;;;;4931277;29;20206;-80
2022/05/19 13:12:38;;;;;;;10.43;5.63;;;18.70;99.90;;;;;;4916323;29;19923;-79